sensor_id;sensor_type;location;lat;lon;timestamp;P1;durP1;ratioP1;P2;durP2;ratioP2
16967;SDS011;8600;54.338;10.128;2022-08-01T00:01:35;29.95;;;22.67;;
16967;SDS011;8600;54.338;10.128;2022-08-01T00:04:02;34.95;;;24.17;;
16967;SDS011;8600;54.338;10.128;2022-08-01T00:06:30;29.90;;;23.00;;
16967;SDS011;8600;54.338;10.128;2022-08-01T00:08:57;29.60;;;23.17;;
16967;SDS011;8600;54.338;10.128;2022-08-01T00:11:24;37.97;;;26.05;;
16967;SDS011;8600;54.338;10.128;2022-08-01T00:13:51;39.03;;;26.95;;
16967;SDS011;8600;54.338;10.128;2022-08-01T00:16:18;37.15;;;26.65;;
16967;SDS011;8600;54.338;10.128;2022-08-01T00:18:49;38.10;;;27.08;;
16967;SDS011;8600;54.338;10.128;2022-08-01T00:21:16;41.08;;;28.83;;
16967;SDS011;8600;54.338;10.128;2022-08-01T00:23:43;38.72;;;27.88;;
16967;SDS011;8600;54.338;10.128;2022-08-01T00:26:11;39.55;;;28.40;;
16967;SDS011;8600;54.338;10.128;2022-08-01T00:28:38;48.33;;;31.80;;
16967;SDS011;8600;54.338;10.128;2022-08-01T00:31:05;47.35;;;31.98;;
16967;SDS011;8600;54.338;10.128;2022-08-01T00:33:32;46.53;;;30.33;;
16967;SDS011;8600;54.338;10.128;2022-08-01T00:36:00;54.17;;;31.83;;
16967;SDS011;8600;54.338;10.128;2022-08-01T00:38:27;45.47;;;30.42;;
16967;SDS011;8600;54.338;10.128;2022-08-01T00:40:54;46.33;;;31.33;;
16967;SDS011;8600;54.338;10.128;2022-08-01T00:43:21;47.83;;;30.88;;
16967;SDS011;8600;54.338;10.128;2022-08-01T00:45:48;47.90;;;31.80;;
16967;SDS011;8600;54.338;10.128;2022-08-01T00:48:15;50.83;;;32.72;;
16967;SDS011;8600;54.338;10.128;2022-08-01T00:50:42;52.65;;;33.53;;
16967;SDS011;8600;54.338;10.128;2022-08-01T00:53:12;58.03;;;34.30;;
16967;SDS011;8600;54.338;10.128;2022-08-01T00:55:39;56.67;;;34.33;;
16967;SDS011;8600;54.338;10.128;2022-08-01T00:58:06;54.58;;;33.33;;
16967;SDS011;8600;54.338;10.128;2022-08-01T01:00:33;62.30;;;36.17;;
16967;SDS011;8600;54.338;10.128;2022-08-01T01:03:01;66.95;;;36.58;;
16967;SDS011;8600;54.338;10.128;2022-08-01T01:05:28;71.95;;;38.13;;
16967;SDS011;8600;54.338;10.128;2022-08-01T01:08:02;65.00;;;38.13;;
16967;SDS011;8600;54.338;10.128;2022-08-01T01:10:36;73.15;;;38.47;;
16967;SDS011;8600;54.338;10.128;2022-08-01T01:13:13;77.00;;;38.95;;
16967;SDS011;8600;54.338;10.128;2022-08-01T01:15:45;77.72;;;39.97;;
16967;SDS011;8600;54.338;10.128;2022-08-01T01:18:17;86.25;;;41.40;;
16967;SDS011;8600;54.338;10.128;2022-08-01T01:20:51;83.63;;;40.50;;
16967;SDS011;8600;54.338;10.128;2022-08-01T01:23:37;81.90;;;38.15;;
16967;SDS011;8600;54.338;10.128;2022-08-01T01:26:21;84.57;;;38.83;;
16967;SDS011;8600;54.338;10.128;2022-08-01T01:29:01;81.43;;;37.90;;
16967;SDS011;8600;54.338;10.128;2022-08-01T01:31:33;84.32;;;38.65;;
16967;SDS011;8600;54.338;10.128;2022-08-01T01:34:06;85.22;;;37.58;;
16967;SDS011;8600;54.338;10.128;2022-08-01T01:36:35;73.50;;;38.05;;
16967;SDS011;8600;54.338;10.128;2022-08-01T01:39:03;80.25;;;38.20;;
16967;SDS011;8600;54.338;10.128;2022-08-01T01:41:32;75.43;;;36.72;;
16967;SDS011;8600;54.338;10.128;2022-08-01T01:44:02;72.75;;;36.58;;
16967;SDS011;8600;54.338;10.128;2022-08-01T01:46:30;72.35;;;36.53;;
16967;SDS011;8600;54.338;10.128;2022-08-01T01:48:58;74.47;;;36.72;;
16967;SDS011;8600;54.338;10.128;2022-08-01T01:51:27;71.80;;;35.55;;
16967;SDS011;8600;54.338;10.128;2022-08-01T01:53:56;75.22;;;34.92;;
16967;SDS011;8600;54.338;10.128;2022-08-01T01:56:25;74.57;;;35.50;;
16967;SDS011;8600;54.338;10.128;2022-08-01T01:58:55;75.28;;;35.30;;
16967;SDS011;8600;54.338;10.128;2022-08-01T02:01:27;77.30;;;36.55;;
16967;SDS011;8600;54.338;10.128;2022-08-01T02:04:00;76.82;;;35.13;;
16967;SDS011;8600;54.338;10.128;2022-08-01T02:06:28;75.20;;;35.47;;
16967;SDS011;8600;54.338;10.128;2022-08-01T02:08:57;68.80;;;34.60;;
16967;SDS011;8600;54.338;10.128;2022-08-01T02:11:27;66.72;;;32.75;;
16967;SDS011;8600;54.338;10.128;2022-08-01T02:13:55;71.85;;;34.88;;
16967;SDS011;8600;54.338;10.128;2022-08-01T02:16:27;69.20;;;34.33;;
16967;SDS011;8600;54.338;10.128;2022-08-01T02:18:57;70.95;;;34.70;;
16967;SDS011;8600;54.338;10.128;2022-08-01T02:21:26;79.18;;;35.83;;
16967;SDS011;8600;54.338;10.128;2022-08-01T02:24:00;70.53;;;34.47;;
16967;SDS011;8600;54.338;10.128;2022-08-01T02:26:33;72.15;;;35.83;;
16967;SDS011;8600;54.338;10.128;2022-08-01T02:29:05;76.70;;;33.83;;
16967;SDS011;8600;54.338;10.128;2022-08-01T02:31:38;66.07;;;34.65;;
16967;SDS011;8600;54.338;10.128;2022-08-01T02:34:11;67.63;;;33.30;;
16967;SDS011;8600;54.338;10.128;2022-08-01T02:36:43;65.50;;;33.47;;
16967;SDS011;8600;54.338;10.128;2022-08-01T02:39:12;67.40;;;34.17;;
16967;SDS011;8600;54.338;10.128;2022-08-01T02:41:43;66.43;;;34.80;;
16967;SDS011;8600;54.338;10.128;2022-08-01T02:44:15;65.72;;;33.90;;
16967;SDS011;8600;54.338;10.128;2022-08-01T02:46:51;63.38;;;32.45;;
16967;SDS011;8600;54.338;10.128;2022-08-01T02:49:20;55.08;;;30.95;;
16967;SDS011;8600;54.338;10.128;2022-08-01T02:51:51;62.75;;;31.83;;
16967;SDS011;8600;54.338;10.128;2022-08-01T02:54:19;54.42;;;30.58;;
16967;SDS011;8600;54.338;10.128;2022-08-01T02:56:48;55.30;;;29.95;;
16967;SDS011;8600;54.338;10.128;2022-08-01T02:59:19;58.45;;;30.73;;
16967;SDS011;8600;54.338;10.128;2022-08-01T03:01:51;59.42;;;30.42;;
16967;SDS011;8600;54.338;10.128;2022-08-01T03:04:21;59.80;;;31.35;;
16967;SDS011;8600;54.338;10.128;2022-08-01T03:06:48;61.33;;;29.98;;
16967;SDS011;8600;54.338;10.128;2022-08-01T03:09:17;50.50;;;30.65;;
16967;SDS011;8600;54.338;10.128;2022-08-01T03:11:45;52.17;;;29.05;;
16967;SDS011;8600;54.338;10.128;2022-08-01T03:14:14;67.25;;;32.70;;
16967;SDS011;8600;54.338;10.128;2022-08-01T03:16:43;56.83;;;31.92;;
16967;SDS011;8600;54.338;10.128;2022-08-01T03:19:13;60.38;;;31.10;;
16967;SDS011;8600;54.338;10.128;2022-08-01T03:21:42;64.78;;;32.70;;
16967;SDS011;8600;54.338;10.128;2022-08-01T03:24:10;58.50;;;32.47;;
16967;SDS011;8600;54.338;10.128;2022-08-01T03:26:39;59.72;;;31.65;;
16967;SDS011;8600;54.338;10.128;2022-08-01T03:29:08;64.00;;;33.47;;
16967;SDS011;8600;54.338;10.128;2022-08-01T03:31:39;63.67;;;32.08;;
16967;SDS011;8600;54.338;10.128;2022-08-01T03:34:10;53.45;;;30.20;;
16967;SDS011;8600;54.338;10.128;2022-08-01T03:36:41;57.40;;;31.35;;
16967;SDS011;8600;54.338;10.128;2022-08-01T03:39:13;51.03;;;29.40;;
16967;SDS011;8600;54.338;10.128;2022-08-01T03:41:43;51.97;;;29.65;;
16967;SDS011;8600;54.338;10.128;2022-08-01T03:44:17;49.70;;;28.13;;
16967;SDS011;8600;54.338;10.128;2022-08-01T03:46:51;51.15;;;28.65;;
16967;SDS011;8600;54.338;10.128;2022-08-01T03:49:25;49.50;;;27.05;;
16967;SDS011;8600;54.338;10.128;2022-08-01T03:51:57;49.88;;;27.45;;
16967;SDS011;8600;54.338;10.128;2022-08-01T03:54:28;40.97;;;27.52;;
16967;SDS011;8600;54.338;10.128;2022-08-01T03:56:58;41.83;;;26.40;;
16967;SDS011;8600;54.338;10.128;2022-08-01T03:59:26;42.70;;;25.25;;
16967;SDS011;8600;54.338;10.128;2022-08-01T04:01:54;42.53;;;24.83;;
16967;SDS011;8600;54.338;10.128;2022-08-01T04:04:22;38.60;;;24.60;;
16967;SDS011;8600;54.338;10.128;2022-08-01T04:06:49;34.88;;;22.92;;
16967;SDS011;8600;54.338;10.128;2022-08-01T04:09:20;34.13;;;21.65;;
16967;SDS011;8600;54.338;10.128;2022-08-01T04:11:47;35.65;;;20.50;;
16967;SDS011;8600;54.338;10.128;2022-08-01T04:14:15;32.58;;;20.30;;
16967;SDS011;8600;54.338;10.128;2022-08-01T04:16:42;28.45;;;18.77;;
16967;SDS011;8600;54.338;10.128;2022-08-01T04:19:09;31.45;;;18.27;;
16967;SDS011;8600;54.338;10.128;2022-08-01T04:21:36;28.58;;;16.58;;
16967;SDS011;8600;54.338;10.128;2022-08-01T04:24:05;25.65;;;17.27;;
16967;SDS011;8600;54.338;10.128;2022-08-01T04:26:36;24.80;;;16.15;;
16967;SDS011;8600;54.338;10.128;2022-08-01T04:29:05;30.60;;;17.05;;
16967;SDS011;8600;54.338;10.128;2022-08-01T04:31:34;25.90;;;14.77;;
16967;SDS011;8600;54.338;10.128;2022-08-01T04:34:04;24.42;;;14.98;;
16967;SDS011;8600;54.338;10.128;2022-08-01T04:36:32;23.42;;;14.75;;
16967;SDS011;8600;54.338;10.128;2022-08-01T04:39:02;22.17;;;14.02;;
16967;SDS011;8600;54.338;10.128;2022-08-01T04:41:30;22.80;;;14.15;;
16967;SDS011;8600;54.338;10.128;2022-08-01T04:43:59;25.20;;;14.32;;
16967;SDS011;8600;54.338;10.128;2022-08-01T04:46:27;21.10;;;14.10;;
16967;SDS011;8600;54.338;10.128;2022-08-01T04:48:55;25.95;;;13.50;;
16967;SDS011;8600;54.338;10.128;2022-08-01T04:51:22;25.48;;;14.40;;
16967;SDS011;8600;54.338;10.128;2022-08-01T04:53:49;21.35;;;14.07;;
16967;SDS011;8600;54.338;10.128;2022-08-01T04:56:17;21.67;;;13.48;;
16967;SDS011;8600;54.338;10.128;2022-08-01T04:58:46;20.48;;;13.00;;
16967;SDS011;8600;54.338;10.128;2022-08-01T05:01:14;21.70;;;12.77;;
16967;SDS011;8600;54.338;10.128;2022-08-01T05:03:41;18.13;;;12.30;;
16967;SDS011;8600;54.338;10.128;2022-08-01T05:06:09;27.20;;;13.23;;
16967;SDS011;8600;54.338;10.128;2022-08-01T05:08:36;23.00;;;12.77;;
16967;SDS011;8600;54.338;10.128;2022-08-01T05:11:03;22.58;;;12.85;;
16967;SDS011;8600;54.338;10.128;2022-08-01T05:13:30;21.35;;;13.63;;
16967;SDS011;8600;54.338;10.128;2022-08-01T05:15:57;24.33;;;12.82;;
16967;SDS011;8600;54.338;10.128;2022-08-01T05:18:25;21.55;;;12.52;;
16967;SDS011;8600;54.338;10.128;2022-08-01T05:20:52;25.20;;;13.75;;
16967;SDS011;8600;54.338;10.128;2022-08-01T05:23:19;22.63;;;12.85;;
16967;SDS011;8600;54.338;10.128;2022-08-01T05:25:46;20.15;;;12.85;;
16967;SDS011;8600;54.338;10.128;2022-08-01T05:28:14;18.88;;;13.10;;
16967;SDS011;8600;54.338;10.128;2022-08-01T05:30:41;22.20;;;13.65;;
16967;SDS011;8600;54.338;10.128;2022-08-01T05:33:08;21.55;;;12.55;;
16967;SDS011;8600;54.338;10.128;2022-08-01T05:35:36;20.02;;;12.85;;
16967;SDS011;8600;54.338;10.128;2022-08-01T05:38:03;22.23;;;12.57;;
16967;SDS011;8600;54.338;10.128;2022-08-01T05:40:30;23.08;;;13.23;;
16967;SDS011;8600;54.338;10.128;2022-08-01T05:42:57;19.85;;;12.55;;
16967;SDS011;8600;54.338;10.128;2022-08-01T05:45:24;16.65;;;12.70;;
16967;SDS011;8600;54.338;10.128;2022-08-01T05:47:51;21.80;;;12.90;;
16967;SDS011;8600;54.338;10.128;2022-08-01T05:50:18;22.70;;;13.23;;
16967;SDS011;8600;54.338;10.128;2022-08-01T05:52:46;25.70;;;13.65;;
16967;SDS011;8600;54.338;10.128;2022-08-01T05:55:13;19.90;;;12.50;;
16967;SDS011;8600;54.338;10.128;2022-08-01T05:57:40;22.58;;;12.50;;
16967;SDS011;8600;54.338;10.128;2022-08-01T06:00:08;17.67;;;11.70;;
16967;SDS011;8600;54.338;10.128;2022-08-01T06:02:39;14.05;;;10.13;;
16967;SDS011;8600;54.338;10.128;2022-08-01T06:05:08;15.65;;;8.85;;
16967;SDS011;8600;54.338;10.128;2022-08-01T06:07:35;13.32;;;8.25;;
16967;SDS011;8600;54.338;10.128;2022-08-01T06:10:05;10.18;;;7.00;;
16967;SDS011;8600;54.338;10.128;2022-08-01T06:12:33;12.57;;;6.43;;
16967;SDS011;8600;54.338;10.128;2022-08-01T06:15:00;9.05;;;6.10;;
16967;SDS011;8600;54.338;10.128;2022-08-01T06:17:27;10.88;;;5.45;;
16967;SDS011;8600;54.338;10.128;2022-08-01T06:19:54;12.25;;;5.55;;
16967;SDS011;8600;54.338;10.128;2022-08-01T06:22:21;9.70;;;5.28;;
16967;SDS011;8600;54.338;10.128;2022-08-01T06:24:48;8.95;;;5.68;;
16967;SDS011;8600;54.338;10.128;2022-08-01T06:27:17;11.20;;;5.25;;
16967;SDS011;8600;54.338;10.128;2022-08-01T06:29:44;8.75;;;5.22;;
16967;SDS011;8600;54.338;10.128;2022-08-01T06:32:11;11.55;;;5.13;;
16967;SDS011;8600;54.338;10.128;2022-08-01T06:34:38;12.43;;;5.38;;
16967;SDS011;8600;54.338;10.128;2022-08-01T06:37:05;8.90;;;5.00;;
16967;SDS011;8600;54.338;10.128;2022-08-01T06:39:32;10.38;;;4.97;;
16967;SDS011;8600;54.338;10.128;2022-08-01T06:41:58;13.75;;;4.72;;
16967;SDS011;8600;54.338;10.128;2022-08-01T06:44:27;10.23;;;5.25;;
16967;SDS011;8600;54.338;10.128;2022-08-01T06:46:54;9.73;;;4.18;;
16967;SDS011;8600;54.338;10.128;2022-08-01T06:49:23;10.52;;;3.90;;
16967;SDS011;8600;54.338;10.128;2022-08-01T06:51:50;10.15;;;3.83;;
16967;SDS011;8600;54.338;10.128;2022-08-01T06:54:18;7.47;;;3.65;;
16967;SDS011;8600;54.338;10.128;2022-08-01T06:56:46;8.02;;;3.53;;
16967;SDS011;8600;54.338;10.128;2022-08-01T06:59:13;5.75;;;3.38;;
16967;SDS011;8600;54.338;10.128;2022-08-01T07:01:41;6.85;;;3.25;;
16967;SDS011;8600;54.338;10.128;2022-08-01T07:04:08;10.23;;;3.53;;
16967;SDS011;8600;54.338;10.128;2022-08-01T07:06:35;9.80;;;3.63;;
16967;SDS011;8600;54.338;10.128;2022-08-01T07:09:02;8.30;;;3.70;;
16967;SDS011;8600;54.338;10.128;2022-08-01T07:11:29;9.07;;;3.70;;
16967;SDS011;8600;54.338;10.128;2022-08-01T07:13:56;8.27;;;3.53;;
16967;SDS011;8600;54.338;10.128;2022-08-01T07:16:24;7.90;;;2.90;;
16967;SDS011;8600;54.338;10.128;2022-08-01T07:18:52;7.82;;;2.80;;
16967;SDS011;8600;54.338;10.128;2022-08-01T07:21:19;7.15;;;2.60;;
16967;SDS011;8600;54.338;10.128;2022-08-01T07:23:46;6.32;;;2.40;;
16967;SDS011;8600;54.338;10.128;2022-08-01T07:26:13;7.25;;;2.10;;
16967;SDS011;8600;54.338;10.128;2022-08-01T07:28:40;7.25;;;2.05;;
16967;SDS011;8600;54.338;10.128;2022-08-01T07:31:06;8.25;;;2.08;;
16967;SDS011;8600;54.338;10.128;2022-08-01T07:33:33;9.65;;;2.15;;
16967;SDS011;8600;54.338;10.128;2022-08-01T07:36:02;7.85;;;2.13;;
16967;SDS011;8600;54.338;10.128;2022-08-01T07:38:29;9.05;;;2.13;;
16967;SDS011;8600;54.338;10.128;2022-08-01T07:40:57;8.80;;;1.92;;
16967;SDS011;8600;54.338;10.128;2022-08-01T07:43:24;8.30;;;2.00;;
16967;SDS011;8600;54.338;10.128;2022-08-01T07:45:50;8.77;;;2.10;;
16967;SDS011;8600;54.338;10.128;2022-08-01T07:48:17;7.55;;;2.10;;
16967;SDS011;8600;54.338;10.128;2022-08-01T07:50:45;11.20;;;1.98;;
16967;SDS011;8600;54.338;10.128;2022-08-01T07:53:14;16.08;;;2.45;;
16967;SDS011;8600;54.338;10.128;2022-08-01T07:55:40;14.05;;;2.20;;
16967;SDS011;8600;54.338;10.128;2022-08-01T07:58:07;10.38;;;2.33;;
16967;SDS011;8600;54.338;10.128;2022-08-01T08:00:34;10.07;;;2.20;;
16967;SDS011;8600;54.338;10.128;2022-08-01T08:03:01;11.25;;;2.38;;
16967;SDS011;8600;54.338;10.128;2022-08-01T08:05:29;8.57;;;2.20;;
16967;SDS011;8600;54.338;10.128;2022-08-01T08:07:56;12.90;;;2.25;;
16967;SDS011;8600;54.338;10.128;2022-08-01T08:10:24;19.85;;;3.03;;
16967;SDS011;8600;54.338;10.128;2022-08-01T08:12:51;10.30;;;1.90;;
16967;SDS011;8600;54.338;10.128;2022-08-01T08:15:18;13.88;;;2.10;;
16967;SDS011;8600;54.338;10.128;2022-08-01T08:17:45;12.60;;;1.80;;
16967;SDS011;8600;54.338;10.128;2022-08-01T08:20:12;9.52;;;2.10;;
16967;SDS011;8600;54.338;10.128;2022-08-01T08:22:39;12.25;;;2.08;;
16967;SDS011;8600;54.338;10.128;2022-08-01T08:25:06;12.20;;;2.10;;
16967;SDS011;8600;54.338;10.128;2022-08-01T08:27:35;13.43;;;1.95;;
16967;SDS011;8600;54.338;10.128;2022-08-01T08:30:02;10.98;;;2.05;;
16967;SDS011;8600;54.338;10.128;2022-08-01T08:32:32;11.65;;;2.38;;
16967;SDS011;8600;54.338;10.128;2022-08-01T08:34:59;13.25;;;2.03;;
16967;SDS011;8600;54.338;10.128;2022-08-01T08:37:26;14.70;;;2.70;;
16967;SDS011;8600;54.338;10.128;2022-08-01T08:39:53;13.52;;;2.45;;
16967;SDS011;8600;54.338;10.128;2022-08-01T08:42:20;17.55;;;2.25;;
16967;SDS011;8600;54.338;10.128;2022-08-01T08:44:49;18.70;;;2.60;;
16967;SDS011;8600;54.338;10.128;2022-08-01T08:47:16;18.33;;;2.55;;
16967;SDS011;8600;54.338;10.128;2022-08-01T08:49:44;11.85;;;2.38;;
16967;SDS011;8600;54.338;10.128;2022-08-01T08:52:13;10.60;;;2.10;;
16967;SDS011;8600;54.338;10.128;2022-08-01T08:54:41;13.27;;;2.65;;
16967;SDS011;8600;54.338;10.128;2022-08-01T08:57:09;13.25;;;2.20;;
16967;SDS011;8600;54.338;10.128;2022-08-01T08:59:39;17.27;;;2.60;;
16967;SDS011;8600;54.338;10.128;2022-08-01T09:02:08;14.85;;;2.58;;
16967;SDS011;8600;54.338;10.128;2022-08-01T09:04:36;11.95;;;2.33;;
16967;SDS011;8600;54.338;10.128;2022-08-01T09:07:05;12.80;;;2.30;;
16967;SDS011;8600;54.338;10.128;2022-08-01T09:09:33;16.98;;;2.60;;
16967;SDS011;8600;54.338;10.128;2022-08-01T09:12:02;16.02;;;2.88;;
16967;SDS011;8600;54.338;10.128;2022-08-01T09:14:29;15.88;;;2.78;;
16967;SDS011;8600;54.338;10.128;2022-08-01T09:17:02;16.88;;;2.53;;
16967;SDS011;8600;54.338;10.128;2022-08-01T09:19:36;15.40;;;2.30;;
16967;SDS011;8600;54.338;10.128;2022-08-01T09:22:05;14.07;;;2.38;;
16967;SDS011;8600;54.338;10.128;2022-08-01T09:24:33;22.77;;;2.63;;
16967;SDS011;8600;54.338;10.128;2022-08-01T09:27:01;13.98;;;2.33;;
16967;SDS011;8600;54.338;10.128;2022-08-01T09:29:41;11.90;;;2.60;;
16967;SDS011;8600;54.338;10.128;2022-08-01T09:32:09;10.18;;;2.28;;
16967;SDS011;8600;54.338;10.128;2022-08-01T09:34:38;13.80;;;2.40;;
16967;SDS011;8600;54.338;10.128;2022-08-01T09:37:05;14.45;;;2.65;;
16967;SDS011;8600;54.338;10.128;2022-08-01T09:39:32;17.85;;;2.90;;
16967;SDS011;8600;54.338;10.128;2022-08-01T09:42:18;13.60;;;2.33;;
16967;SDS011;8600;54.338;10.128;2022-08-01T09:44:46;16.77;;;2.00;;
16967;SDS011;8600;54.338;10.128;2022-08-01T09:47:13;15.60;;;2.47;;
16967;SDS011;8600;54.338;10.128;2022-08-01T09:49:43;11.45;;;1.80;;
16967;SDS011;8600;54.338;10.128;2022-08-01T09:52:11;14.80;;;2.25;;
16967;SDS011;8600;54.338;10.128;2022-08-01T09:54:39;11.95;;;2.05;;
16967;SDS011;8600;54.338;10.128;2022-08-01T09:57:08;9.70;;;1.67;;
16967;SDS011;8600;54.338;10.128;2022-08-01T09:59:36;16.80;;;2.22;;
16967;SDS011;8600;54.338;10.128;2022-08-01T10:02:07;17.17;;;2.20;;
16967;SDS011;8600;54.338;10.128;2022-08-01T10:04:35;14.73;;;1.77;;
16967;SDS011;8600;54.338;10.128;2022-08-01T10:07:06;9.35;;;1.73;;
16967;SDS011;8600;54.338;10.128;2022-08-01T10:09:34;13.35;;;2.08;;
16967;SDS011;8600;54.338;10.128;2022-08-01T10:12:02;10.85;;;1.90;;
16967;SDS011;8600;54.338;10.128;2022-08-01T10:14:30;17.33;;;2.00;;
16967;SDS011;8600;54.338;10.128;2022-08-01T10:16:59;13.57;;;2.15;;
16967;SDS011;8600;54.338;10.128;2022-08-01T10:19:27;13.20;;;1.90;;
16967;SDS011;8600;54.338;10.128;2022-08-01T10:21:57;11.13;;;1.75;;
16967;SDS011;8600;54.338;10.128;2022-08-01T10:24:27;12.18;;;2.03;;
16967;SDS011;8600;54.338;10.128;2022-08-01T10:26:56;9.23;;;1.67;;
16967;SDS011;8600;54.338;10.128;2022-08-01T10:29:28;11.25;;;1.70;;
16967;SDS011;8600;54.338;10.128;2022-08-01T10:32:00;11.80;;;1.70;;
16967;SDS011;8600;54.338;10.128;2022-08-01T10:34:28;8.60;;;1.80;;
16967;SDS011;8600;54.338;10.128;2022-08-01T10:36:57;9.43;;;1.40;;
16967;SDS011;8600;54.338;10.128;2022-08-01T10:39:26;8.75;;;1.60;;
16967;SDS011;8600;54.338;10.128;2022-08-01T10:41:56;9.77;;;1.52;;
16967;SDS011;8600;54.338;10.128;2022-08-01T10:44:23;10.23;;;1.80;;
16967;SDS011;8600;54.338;10.128;2022-08-01T10:46:54;9.77;;;1.77;;
16967;SDS011;8600;54.338;10.128;2022-08-01T10:49:29;14.48;;;1.65;;
16967;SDS011;8600;54.338;10.128;2022-08-01T10:52:00;9.57;;;1.67;;
16967;SDS011;8600;54.338;10.128;2022-08-01T10:54:29;10.30;;;1.52;;
16967;SDS011;8600;54.338;10.128;2022-08-01T10:57:05;16.40;;;1.80;;
16967;SDS011;8600;54.338;10.128;2022-08-01T10:59:32;8.52;;;1.48;;
16967;SDS011;8600;54.338;10.128;2022-08-01T11:02:00;12.35;;;1.85;;
16967;SDS011;8600;54.338;10.128;2022-08-01T11:04:36;10.75;;;1.88;;
16967;SDS011;8600;54.338;10.128;2022-08-01T11:07:11;10.32;;;1.55;;
16967;SDS011;8600;54.338;10.128;2022-08-01T11:09:45;14.70;;;1.85;;
16967;SDS011;8600;54.338;10.128;2022-08-01T11:12:14;10.20;;;1.90;;
16967;SDS011;8600;54.338;10.128;2022-08-01T11:17:49;12.10;;;1.52;;
16967;SDS011;8600;54.338;10.128;2022-08-01T11:20:17;13.70;;;2.03;;
16967;SDS011;8600;54.338;10.128;2022-08-01T11:26:09;11.10;;;1.42;;
16967;SDS011;8600;54.338;10.128;2022-08-01T11:28:41;9.15;;;1.60;;
16967;SDS011;8600;54.338;10.128;2022-08-01T11:31:29;7.10;;;1.48;;
16967;SDS011;8600;54.338;10.128;2022-08-01T11:34:00;10.88;;;1.90;;
16967;SDS011;8600;54.338;10.128;2022-08-01T11:36:27;8.57;;;1.70;;
16967;SDS011;8600;54.338;10.128;2022-08-01T11:39:11;10.88;;;1.48;;
16967;SDS011;8600;54.338;10.128;2022-08-01T11:41:45;9.63;;;1.52;;
16967;SDS011;8600;54.338;10.128;2022-08-01T11:44:15;8.57;;;1.55;;
16967;SDS011;8600;54.338;10.128;2022-08-01T11:46:48;11.85;;;1.50;;
16967;SDS011;8600;54.338;10.128;2022-08-01T11:49:27;6.63;;;1.27;;
16967;SDS011;8600;54.338;10.128;2022-08-01T11:52:00;11.32;;;1.65;;
16967;SDS011;8600;54.338;10.128;2022-08-01T11:54:30;4.90;;;1.10;;
16967;SDS011;8600;54.338;10.128;2022-08-01T11:57:00;10.75;;;1.98;;
16967;SDS011;8600;54.338;10.128;2022-08-01T11:59:31;8.32;;;1.40;;
16967;SDS011;8600;54.338;10.128;2022-08-01T12:04:43;10.38;;;1.50;;
16967;SDS011;8600;54.338;10.128;2022-08-01T12:07:12;14.27;;;1.52;;
16967;SDS011;8600;54.338;10.128;2022-08-01T12:09:39;10.40;;;1.70;;
16967;SDS011;8600;54.338;10.128;2022-08-01T12:12:08;7.35;;;1.30;;
16967;SDS011;8600;54.338;10.128;2022-08-01T12:14:35;8.73;;;1.80;;
16967;SDS011;8600;54.338;10.128;2022-08-01T12:17:02;12.43;;;1.98;;
16967;SDS011;8600;54.338;10.128;2022-08-01T12:19:29;11.50;;;1.70;;
16967;SDS011;8600;54.338;10.128;2022-08-01T12:22:09;14.30;;;2.50;;
16967;SDS011;8600;54.338;10.128;2022-08-01T12:24:38;9.70;;;1.67;;
16967;SDS011;8600;54.338;10.128;2022-08-01T12:27:08;12.25;;;1.70;;
16967;SDS011;8600;54.338;10.128;2022-08-01T12:29:38;9.35;;;1.75;;
16967;SDS011;8600;54.338;10.128;2022-08-01T12:32:20;6.20;;;1.40;;
16967;SDS011;8600;54.338;10.128;2022-08-01T12:34:52;7.90;;;1.30;;
16967;SDS011;8600;54.338;10.128;2022-08-01T12:37:20;8.80;;;1.58;;
16967;SDS011;8600;54.338;10.128;2022-08-01T12:39:47;8.23;;;1.40;;
16967;SDS011;8600;54.338;10.128;2022-08-01T12:42:16;6.47;;;1.60;;
16967;SDS011;8600;54.338;10.128;2022-08-01T12:44:44;9.20;;;1.77;;
16967;SDS011;8600;54.338;10.128;2022-08-01T12:47:14;7.60;;;1.33;;
16967;SDS011;8600;54.338;10.128;2022-08-01T12:49:42;10.20;;;1.80;;
16967;SDS011;8600;54.338;10.128;2022-08-01T12:52:11;12.57;;;1.67;;
16967;SDS011;8600;54.338;10.128;2022-08-01T12:57:44;6.95;;;1.40;;
16967;SDS011;8600;54.338;10.128;2022-08-01T13:00:16;8.60;;;1.48;;
16967;SDS011;8600;54.338;10.128;2022-08-01T13:02:45;8.75;;;1.70;;
16967;SDS011;8600;54.338;10.128;2022-08-01T13:05:13;8.95;;;1.35;;
16967;SDS011;8600;54.338;10.128;2022-08-01T13:07:42;8.38;;;1.35;;
16967;SDS011;8600;54.338;10.128;2022-08-01T13:10:11;8.63;;;1.67;;
16967;SDS011;8600;54.338;10.128;2022-08-01T13:12:40;6.68;;;1.48;;
16967;SDS011;8600;54.338;10.128;2022-08-01T13:15:23;9.57;;;1.52;;
16967;SDS011;8600;54.338;10.128;2022-08-01T13:17:53;8.88;;;1.88;;
16967;SDS011;8600;54.338;10.128;2022-08-01T13:20:21;8.35;;;1.55;;
16967;SDS011;8600;54.338;10.128;2022-08-01T13:22:49;7.70;;;1.50;;
16967;SDS011;8600;54.338;10.128;2022-08-01T13:25:16;7.20;;;1.38;;
16967;SDS011;8600;54.338;10.128;2022-08-01T13:27:43;7.97;;;1.48;;
16967;SDS011;8600;54.338;10.128;2022-08-01T13:30:13;11.93;;;1.70;;
16967;SDS011;8600;54.338;10.128;2022-08-01T13:32:42;8.25;;;1.40;;
16967;SDS011;8600;54.338;10.128;2022-08-01T13:35:10;6.50;;;1.30;;
16967;SDS011;8600;54.338;10.128;2022-08-01T13:37:39;9.23;;;1.48;;
16967;SDS011;8600;54.338;10.128;2022-08-01T13:40:08;6.15;;;1.25;;
16967;SDS011;8600;54.338;10.128;2022-08-01T13:42:36;6.15;;;1.20;;
16967;SDS011;8600;54.338;10.128;2022-08-01T13:45:04;6.97;;;1.27;;
16967;SDS011;8600;54.338;10.128;2022-08-01T13:47:37;6.10;;;1.42;;
16967;SDS011;8600;54.338;10.128;2022-08-01T13:50:04;7.47;;;1.48;;
16967;SDS011;8600;54.338;10.128;2022-08-01T13:52:31;8.40;;;1.50;;
16967;SDS011;8600;54.338;10.128;2022-08-01T13:54:58;12.63;;;1.95;;
16967;SDS011;8600;54.338;10.128;2022-08-01T13:57:26;10.98;;;1.73;;
16967;SDS011;8600;54.338;10.128;2022-08-01T13:59:53;9.57;;;1.63;;
16967;SDS011;8600;54.338;10.128;2022-08-01T14:02:23;7.68;;;1.85;;
16967;SDS011;8600;54.338;10.128;2022-08-01T14:04:51;9.07;;;1.63;;
16967;SDS011;8600;54.338;10.128;2022-08-01T14:07:19;7.63;;;1.45;;
16967;SDS011;8600;54.338;10.128;2022-08-01T14:09:46;7.55;;;1.67;;
16967;SDS011;8600;54.338;10.128;2022-08-01T14:12:13;10.55;;;1.70;;
16967;SDS011;8600;54.338;10.128;2022-08-01T14:14:40;11.57;;;1.50;;
16967;SDS011;8600;54.338;10.128;2022-08-01T14:17:07;9.90;;;1.95;;
16967;SDS011;8600;54.338;10.128;2022-08-01T14:19:34;12.82;;;1.63;;
16967;SDS011;8600;54.338;10.128;2022-08-01T14:22:02;12.98;;;1.85;;
16967;SDS011;8600;54.338;10.128;2022-08-01T14:24:29;12.90;;;1.92;;
16967;SDS011;8600;54.338;10.128;2022-08-01T14:26:56;8.73;;;2.17;;
16967;SDS011;8600;54.338;10.128;2022-08-01T14:29:23;10.75;;;1.90;;
16967;SDS011;8600;54.338;10.128;2022-08-01T14:31:50;8.23;;;1.63;;
16967;SDS011;8600;54.338;10.128;2022-08-01T14:34:17;9.82;;;1.70;;
16967;SDS011;8600;54.338;10.128;2022-08-01T14:36:44;7.28;;;1.60;;
16967;SDS011;8600;54.338;10.128;2022-08-01T14:39:12;10.90;;;1.48;;
16967;SDS011;8600;54.338;10.128;2022-08-01T14:41:39;8.00;;;1.67;;
16967;SDS011;8600;54.338;10.128;2022-08-01T14:44:06;9.25;;;1.67;;
16967;SDS011;8600;54.338;10.128;2022-08-01T14:46:34;13.88;;;1.92;;
16967;SDS011;8600;54.338;10.128;2022-08-01T14:49:01;9.32;;;1.60;;
16967;SDS011;8600;54.338;10.128;2022-08-01T14:51:27;9.88;;;1.80;;
16967;SDS011;8600;54.338;10.128;2022-08-01T14:53:58;10.95;;;1.48;;
16967;SDS011;8600;54.338;10.128;2022-08-01T14:56:26;9.40;;;1.48;;